Latest Weather Observations for Parawa West

IDS60801

Issued at 4:31 pm CDT Thursday 5 March 2015 (issued every 30 minutes, with the page automatically refreshed every 10 minutes)

About weather observations | Map of weather stations | Latest weather observations for SA | Other Formats
Station Details ID: 023875 Name: SECOND VALLEY FOREST AWS Lat: -35.57 Lon: 138.29 Height: 341.0 m
Data from the previous 72 hours. | See also: Recent months at Parawa West
Date/Time
CDT
Temp
°C
App
Temp
°C
Dew
Point
Rel
Hum
%
Delta-T
°C
Wind Press
QNH
hPa
Press
MSL
hPa
Rain
since 9 am
mm
Dir
 
Spd
km/h
Gust
km/h
Spd
kts
Gust
kts
05/04:30pm 15.4 10.5 6.9 57 4.2 S 22 33 12 18 1021.8 1021.0 0.0
05/04:00pm 16.0 11.5 7.0 55 4.5 S 20 30 11 16 1021.8 1021.0 0.0
05/03:30pm 15.6 11.1 6.1 53 4.7 S 19 30 10 16 1022.1 1021.3 0.0
05/03:00pm 16.3 12.6 6.4 52 4.9 SSW 15 24 8 13 1022.4 1021.6 0.0
05/02:30pm 15.0 10.5 6.0 55 4.4 SSW 19 26 10 14 1022.8 1022.1 0.0
05/02:00pm 15.4 10.5 6.7 56 4.3 SSW 22 35 12 19 1022.8 1022.1 0.0
05/01:30pm 15.4 10.3 6.2 54 4.5 S 22 39 12 21 1023.1 1022.4 0.0
05/01:00pm 15.9 10.8 6.1 52 4.8 SSE 22 37 12 20 1023.1 1022.4 0.0
05/12:30pm 15.2 10.5 6.2 55 4.4 S 20 32 11 17 1023.5 1022.7 0.0
05/12:00pm 15.0 10.4 6.3 56 4.3 S 20 30 11 16 1024.0 1023.2 0.0
05/11:30am 14.7 9.1 5.5 54 4.4 S 24 33 13 18 1024.1 1023.3 0.0
05/11:00am 14.3 8.0 5.7 56 4.2 SSE 28 39 15 21 1024.1 1023.3 0.0
05/10:30am 14.3 8.5 6.2 58 3.9 SSE 26 33 14 18 1023.9 1023.1 0.0
05/10:00am 13.1 6.8 5.8 61 3.5 S 28 39 15 21 1023.2 1022.5 0.0
05/09:30am 14.0 7.7 5.6 57 4.0 SSE 28 37 15 20 1023.0 1022.3 0.0
05/09:00am 12.4 6.1 5.8 64 3.1 SSE 28 35 15 19 1022.5 1021.8 0.4
05/08:30am 13.2 6.9 5.9 61 3.5 SSE 28 35 15 19 1022.0 1021.2 0.4
05/08:00am 12.4 6.2 6.2 66 3.0 SSE 28 41 15 22 1021.5 1020.7 0.4
05/07:30am 12.0 5.8 6.1 67 2.8 S 28 37 15 20 1021.3 1020.5 0.4
05/07:00am 12.6 5.8 7.1 69 2.7 S 32 43 17 23 1021.0 1020.2 0.4
05/06:30am 12.5 5.5 6.1 65 3.1 S 32 48 17 26 1020.9 1020.1 0.4
05/06:00am 12.6 6.0 7.7 72 2.4 S 32 46 17 25 1020.1 1019.4 0.4
05/05:30am 12.7 6.5 9.2 79 1.8 S 32 48 17 26 1019.8 1019.0 0.4
05/05:00am 13.0 6.0 8.3 73 2.4 S 35 48 19 26 1019.8 1019.0 0.4
05/04:30am 13.3 7.5 9.4 77 2.0 SSW 30 39 16 21 1019.7 1018.9 0.4
05/04:00am 13.4 7.2 8.0 70 2.7 SSW 30 43 16 23 1019.6 1018.8 0.4
05/03:30am 13.3 7.4 7.3 67 3.0 SSW 28 41 15 22 1019.5 1018.7 0.4
05/03:00am 13.7 7.4 9.0 73 2.4 SSW 32 41 17 22 1019.3 1018.5 0.4
05/02:44am 13.8 8.4 9.5 75 2.2 SSW 28 52 15 28 1019.3 1018.5 0.4
05/02:30am 13.8 8.6 9.0 73 2.5 SSW 26 41 14 22 1019.4 1018.6 0.4
05/02:00am 14.0 9.5 10.2 78 2.0 SSW 24 35 13 19 1019.6 1018.8 0.4
05/01:30am 14.1 9.7 11.8 86 1.3 SSW 26 41 14 22 1019.6 1018.8 0.4
05/01:00am 14.0 10.8 13.2 95 0.4 SSW 22 35 12 19 1019.4 1018.6 0.4
05/12:30am 14.2 11.4 13.1 93 0.6 SW 20 33 11 18 1019.4 1018.6 0.0
05/12:00am 14.2 11.0 13.1 93 0.6 WSW 22 33 12 18 1019.2 1018.4 0.0
 
Date/Time
CDT
Temp
°C
App
Temp
°C
Dew
Point
Rel
Hum
%
Delta-T
°C
Wind Press
QNH
hPa
Press
MSL
hPa
Rain
since 9 am
mm
Dir
 
Spd
km/h
Gust
km/h
Spd
kts
Gust
kts
04/11:30pm 14.6 11.3 12.8 89 1.0 W 22 41 12 22 1019.2 1018.4 0.0
04/11:00pm 15.0 11.5 12.1 83 1.6 W 22 30 12 16 1019.0 1018.2 0.0
04/10:30pm 15.2 11.9 11.6 79 2.0 W 20 35 11 19 1018.9 1018.1 0.0
04/10:00pm 15.2 11.0 11.2 77 2.2 WSW 24 37 13 20 1018.7 1017.9 0.0
04/09:30pm 15.6 12.7 11.0 74 2.5 W 17 28 9 15 1018.4 1017.6 0.0
04/09:00pm 15.7 12.5 11.3 75 2.4 WSW 19 30 10 16 1018.2 1017.4 0.0
04/08:30pm 16.1 14.6 11.9 76 2.3 WSW 11 20 6 11 1017.9 1017.1 0.0
04/08:00pm 16.2 13.7 12.2 77 2.2 W 17 28 9 15 1017.3 1016.4 0.0
04/07:30pm 15.9 13.5 12.8 82 1.7 W 17 28 9 15 1017.1 1016.3 0.0
04/07:00pm 16.2 13.3 12.9 81 1.9 W 20 32 11 17 1017.1 1016.3 0.0
04/06:30pm 16.3 13.9 12.8 80 2.0 WNW 17 26 9 14 1016.9 1016.1 0.0
04/06:00pm 16.9 13.9 12.6 76 2.4 WNW 20 35 11 19 1017.0 1016.2 0.0
04/05:30pm 17.3 13.9 12.6 74 2.6 WNW 22 32 12 17 1016.8 1016.0 0.0
04/05:00pm 17.2 13.7 12.1 72 2.8 WNW 22 32 12 17 1016.6 1015.8 0.0
04/04:30pm 17.4 13.6 11.0 66 3.5 W 22 33 12 18 1016.9 1016.1 0.0
04/04:00pm 17.9 14.6 10.8 63 3.9 WNW 19 32 10 17 1016.9 1016.1 0.0
04/03:30pm 17.9 14.6 11.0 64 3.8 WNW 19 30 10 16 1017.3 1016.4 0.0
04/03:00pm 18.0 14.7 10.9 63 3.9 WNW 19 30 10 16 1017.8 1017.0 0.0
04/02:30pm 17.0 13.4 10.6 66 3.5 NW 20 32 11 17 1018.0 1017.2 0.0
04/02:00pm 17.2 14.1 10.3 64 3.7 WNW 17 26 9 14 1018.3 1017.5 0.0
04/01:30pm 16.6 13.3 9.5 63 3.8 W 17 24 9 13 1018.5 1017.7 0.0
04/01:00pm 16.6 13.0 9.8 64 3.6 W 19 26 10 14 1018.8 1018.0 0.0
04/12:30pm 16.3 12.4 9.5 64 3.6 W 20 30 11 16 1019.2 1018.4 0.0
04/12:00pm 16.3 13.0 9.7 65 3.5 W 17 22 9 12 1019.4 1018.6 0.0
04/11:30am 16.1 12.4 9.5 65 3.5 WNW 19 28 10 15 1019.3 1018.5 0.0
04/11:00am 16.8 13.8 9.2 61 4.0 W 15 26 8 14 1019.1 1018.3 0.0
04/10:30am 16.2 13.1 8.9 62 3.8 W 15 26 8 14 1019.2 1018.4 0.0
04/10:00am 15.8 13.1 9.0 64 3.6 W 13 22 7 12 1019.2 1018.4 0.0
04/09:30am 14.7 11.5 8.6 67 3.1 W 15 20 8 11 1019.2 1018.4 0.0
04/09:00am 14.8 12.6 9.2 69 2.9 WSW 11 19 6 10 1019.0 1018.2 0.0
04/08:30am 13.8 12.1 9.8 77 2.1 W 9 17 5 9 1019.1 1018.3 0.0
04/08:00am 12.7 10.5 9.5 81 1.7 W 11 15 6 8 1018.9 1018.1 0.0
04/07:30am 12.1 9.9 9.5 84 1.3 W 11 15 6 8 1018.5 1017.7 0.0
04/07:00am 11.8 10.3 9.0 83 1.4 WSW 7 9 4 5 1018.1 1017.3 0.0
04/06:30am 12.0 10.6 9.0 82 1.5 WSW 6 9 3 5 1018.0 1017.2 0.0
04/06:00am 12.1 10.6 9.1 82 1.5 SW 7 11 4 6 1018.0 1017.2 0.0
04/05:30am 12.1 10.8 9.1 82 1.5 SW 6 9 3 5 1017.7 1016.9 0.0
04/05:00am 12.4 10.9 9.1 80 1.7 SSW 7 11 4 6 1017.7 1016.9 0.0
04/04:30am 12.3 10.3 8.8 79 1.8 SSW 9 15 5 8 1017.5 1016.7 0.0
04/04:00am 12.8 10.1 8.9 77 2.0 S 13 17 7 9 1017.7 1016.9 0.0
04/03:30am 12.8 10.1 8.9 77 2.0 S 13 15 7 8 1017.9 1017.1 0.0
04/03:00am 12.9 10.2 9.0 77 2.0 S 13 19 7 10 1018.2 1017.4 0.0
04/02:30am 13.1 10.2 9.5 79 1.9 S 15 19 8 10 1018.6 1017.8 0.0
04/02:00am 13.0 9.7 9.4 79 1.9 S 17 24 9 13 1018.9 1018.1 0.0
04/01:30am 12.9 9.1 9.2 78 1.9 SSW 19 24 10 13 1019.0 1018.2 0.0
04/01:00am 13.3 9.7 9.9 80 1.8 S 19 24 10 13 1019.0 1018.2 0.0
04/12:30am 13.5 10.3 10.1 80 1.8 S 17 22 9 12 1019.3 1018.5 0.0
04/12:00am 13.9 10.3 10.7 81 1.7 S 20 28 11 15 1019.4 1018.6 0.0
 
Date/Time
CDT
Temp
°C
App
Temp
°C
Dew
Point
Rel
Hum
%
Delta-T
°C
Wind Press
QNH
hPa
Press
MSL
hPa
Rain
since 9 am
mm
Dir
 
Spd
km/h
Gust
km/h
Spd
kts
Gust
kts
03/11:30pm 13.6 9.6 10.4 81 1.7 S 22 28 12 15 1019.4 1018.6 0.0
03/11:00pm 13.7 10.2 10.3 80 1.8 S 19 28 10 15 1019.5 1018.7 0.0
03/10:30pm 13.6 9.9 10.2 80 1.8 SSE 20 26 11 14 1019.6 1018.8 0.0
03/10:00pm 13.6 10.0 10.4 81 1.7 SSE 20 26 11 14 1019.4 1018.6 0.0
03/09:30pm 13.8 10.4 10.4 80 1.8 SSE 19 26 10 14 1019.4 1018.6 0.0
03/09:00pm 13.9 10.3 10.5 80 1.8 SSE 20 24 11 13 1019.3 1018.5 0.0
03/08:30pm 13.9 10.5 10.5 80 1.8 SSE 19 22 10 12 1018.9 1018.1 0.0
03/08:00pm 14.4 10.5 10.8 79 1.9 S 22 30 12 16 1018.6 1017.8 0.0
03/07:30pm 14.8 11.1 11.4 80 1.8 SSE 22 32 12 17 1018.3 1017.5 0.0
03/07:00pm 15.5 11.7 11.1 75 2.4 SSE 22 32 12 17 1018.1 1017.3 0.0
03/06:30pm 15.8 11.6 11.0 73 2.6 SSE 24 32 13 17 1018.0 1017.2 0.0
03/06:00pm 16.6 12.1 11.3 71 2.9 SSE 26 32 14 17 1017.8 1017.0 0.0
03/05:30pm 16.3 12.0 10.6 69 3.1 SSE 24 33 13 18 1017.9 1017.1 0.0
03/05:00pm 17.1 12.7 10.5 65 3.6 SSE 24 32 13 17 1017.8 1017.0 0.0
03/04:30pm 17.8 13.9 10.9 64 3.8 SSE 22 30 12 16 1018.0 1017.2 0.0
03/04:00pm 17.1 12.4 10.5 65 3.6 SSE 26 32 14 17 1017.8 1017.0 0.0
03/03:30pm 18.4 13.5 10.0 58 4.5 SE 26 33 14 18 1017.9 1017.1 0.0
03/03:00pm 17.6 13.1 10.2 62 4.0 SSE 24 33 13 18 1018.3 1017.5 0.0
03/02:30pm 17.8 13.6 9.9 60 4.2 SSE 22 32 12 17 1018.6 1017.8 0.0
03/02:00pm 18.0 13.6 9.1 56 4.7 SSE 22 32 12 17 1018.7 1017.9 0.0
03/01:30pm 17.7 14.0 10.3 62 4.0 SE 20 28 11 15 1018.9 1018.1 0.0
03/01:00pm 17.6 13.4 9.8 60 4.2 SSE 22 30 12 16 1019.2 1018.4 0.0
03/12:30pm 17.2 12.5 9.4 60 4.1 SE 24 35 13 19 1019.3 1018.5 0.0
03/12:00pm 18.0 13.5 8.6 54 4.9 SSE 22 30 12 16 1019.7 1018.9 0.0
03/11:30am 17.1 13.0 10.2 64 3.7 SSE 22 32 12 17 1020.0 1019.3 0.0
03/11:00am 16.6 12.6 10.5 67 3.3 SSE 22 30 12 16 1019.9 1019.1 0.0
03/10:30am 16.2 11.9 10.7 70 3.0 SSE 24 33 13 18 1019.7 1018.9 0.0
03/10:00am 15.2 10.5 10.6 74 2.5 SSE 26 33 14 18 1019.5 1018.7 0.0
03/09:30am 15.6 11.4 11.0 74 2.5 SSE 24 32 13 17 1019.2 1018.4 0.0
03/09:00am 14.5 10.0 11.3 81 1.7 SE 26 33 14 18 1018.8 1018.0 -
03/08:30am 14.5 10.4 11.5 82 1.6 SE 24 33 13 18 1018.7 1017.9 -
03/08:00am 14.0 11.0 12.0 88 1.1 SE 19 22 10 12 1018.4 1017.6 -
03/07:30am 13.4 10.1 11.6 89 1.0 SE 20 26 11 14 1018.0 1017.2 -
03/07:00am 13.4 10.2 11.8 90 0.9 SE 20 28 11 15 1017.4 1016.5 -
03/06:30am 13.2 10.2 11.8 91 0.8 SE 19 24 10 13 1017.1 1016.3 -
03/06:00am 13.2 9.9 11.6 90 0.9 SE 20 26 11 14 1017.0 1016.2 -
03/05:30am 13.5 9.9 11.7 89 1.0 SE 22 30 12 16 1016.7 1015.9 -
03/05:00am 13.3 10.1 11.9 91 0.8 SE 20 28 11 15 1016.7 1015.9 -
03/04:30am 13.3 10.3 12.0 92 0.7 SE 19 24 10 13 1016.6 1015.8 -
03/04:00am 13.3 10.1 11.9 91 0.8 SE 20 24 11 13 1016.5 1015.7 -
03/03:30am 13.5 10.3 11.9 90 0.9 SE 20 28 11 15 1016.8 1016.0 -
03/03:00am 13.4 9.8 11.8 90 0.9 SE 22 30 12 16 1016.7 1015.9 0.0
03/02:30am 13.8 10.2 11.8 88 1.1 SSE 22 28 12 15 1016.9 1016.1 -
03/02:00am 14.1 10.2 12.1 88 1.1 SSE 24 32 13 17 1017.0 1016.2 -
03/01:30am 14.3 10.7 12.0 86 1.3 SSE 22 32 12 17 1017.3 1016.4 -
03/01:00am 14.3 10.4 12.0 86 1.3 SSE 24 32 13 17 1017.4 1016.5 -
03/12:30am 14.4 10.4 13.0 91 0.8 SSE 26 33 14 18 1017.1 1016.3 -
03/12:00am 14.5 10.5 13.0 91 0.8 SSE 26 32 14 17 1017.6 1016.8 -
 
Date/Time
CDT
Temp
°C
App
Temp
°C
Dew
Point
Rel
Hum
%
Delta-T
°C
Wind Press
QNH
hPa
Press
MSL
hPa
Rain
since 9 am
mm
Dir
 
Spd
km/h
Gust
km/h
Spd
kts
Gust
kts
02/11:30pm 14.6 11.0 13.1 91 0.8 SSE 24 32 13 17 1017.7 1016.9 -
02/11:00pm 14.7 11.3 13.6 93 0.6 S 24 32 13 17 1017.9 1017.1 -
02/10:30pm 15.0 12.3 14.5 97 0.3 S 22 28 12 15 1017.7 1016.9 -
02/10:00pm 15.0 12.8 14.5 97 0.3 SSE 19 24 10 13 1017.5 1016.7 -
02/09:30pm 15.1 13.2 14.3 95 0.5 SSE 17 19 9 10 1017.4 1016.5 -
02/09:00pm 15.3 13.0 14.0 92 0.7 SSE 19 22 10 12 1016.9 1016.1 0.0
02/08:30pm 15.5 12.6 14.0 91 0.9 S 22 28 12 15 1016.3 1015.5 -
02/08:00pm 15.7 12.4 14.1 90 0.9 S 24 30 13 16 1016.0 1015.2 -
02/07:30pm 16.3 13.8 14.0 86 1.3 SSW 20 26 11 14 1015.8 1015.0 -
02/07:00pm 17.4 14.7 12.9 75 2.6 S 19 24 10 13 1015.4 1014.6 -
02/06:30pm 18.2 15.6 12.0 67 3.5 S 17 22 9 12 1015.4 1014.6 -
02/06:00pm 21.4 20.5 10.6 50 6.0 WSW 6 9 3 5 1014.9 1014.1 -
02/05:30pm 22.5 20.1 5.4 33 8.7 NW 7 13 4 7 1014.6 1013.7 -
02/05:00pm 22.9 19.7 5.3 32 9.0 NW 11 17 6 9 1014.6 1013.7 -

Other Formats:

Comma delimited format used in spreadsheet applications
http://www.bom.gov.au/fwo/IDS60801/IDS60801.94811.axf

JavaScript Object Notation format (JSON) in row-major order
http://www.bom.gov.au/fwo/IDS60801/IDS60801.94811.json